Time;durP1;ratioP1;P1;durP2;ratioP2;P2;SDS_P1;SDS_P2;PMS_P1;PMS_P2;Temp;Humidity;BMP_temperature;BMP_pressure;BME280_temperature;BME280_humidity;BME280_pressure;Samples;Min_cycle;Max_cycle;Signal;HPM_P1;HPM_P2
2023/03/18 00:01:26;;;;;;;6.45;4.63;;;11.30;99.90;;;;;;5107063;27;20078;-82
2023/03/18 00:03:52;;;;;;;6.82;5.05;;;11.60;99.90;;;;;;5108771;27;20051;-82
2023/03/18 00:06:19;;;;;;;7.93;4.75;;;11.30;99.90;;;;;;5108476;27;20039;-82
2023/03/18 00:08:46;;;;;;;8.10;5.00;;;11.30;99.90;;;;;;5107764;28;20047;-82
2023/03/18 00:11:15;;;;;;;5.22;4.72;;;11.30;99.90;;;;;;5108819;27;20125;-82
2023/03/18 00:13:41;;;;;;;6.05;4.68;;;11.30;99.90;;;;;;5090816;28;20485;-82
2023/03/18 00:16:10;;;;;;;7.30;5.05;;;11.30;99.90;;;;;;5110531;28;20061;-82
2023/03/18 00:18:36;;;;;;;7.28;4.97;;;11.40;99.90;;;;;;5106044;28;20478;-81
2023/03/18 00:21:03;;;;;;;9.68;5.53;;;11.30;99.90;;;;;;5089808;28;20039;-82
2023/03/18 00:23:30;;;;;;;7.32;5.13;;;11.40;99.90;;;;;;5092186;28;20388;-81
2023/03/18 00:25:59;;;;;;;7.18;5.15;;;11.40;99.90;;;;;;5109112;28;20533;-82
2023/03/18 00:28:26;;;;;;;5.88;4.82;;;11.40;99.90;;;;;;5091952;27;20055;-82
2023/03/18 00:30:52;;;;;;;10.18;5.50;;;11.40;99.90;;;;;;5103214;28;20130;-82
2023/03/18 00:33:18;;;;;;;10.00;6.15;;;11.40;99.90;;;;;;5124050;28;20047;-82
2023/03/18 00:35:45;;;;;;;8.13;5.70;;;11.40;99.90;;;;;;5107302;28;20051;-82
2023/03/18 00:38:19;;;;;;;8.30;7.15;;;11.40;99.90;;;;;;5089558;28;20044;-81
2023/03/18 00:40:52;;;;;;;8.80;6.75;;;11.50;99.90;;;;;;5105927;28;20043;-82
2023/03/18 00:43:28;;;;;;;9.60;7.38;;;11.50;99.90;;;;;;5107015;28;20043;-82
2023/03/18 00:45:54;;;;;;;8.30;7.10;;;11.60;99.90;;;;;;5108335;28;20496;-82
2023/03/18 00:48:21;;;;;;;10.63;7.07;;;11.60;99.90;;;;;;5108270;28;20043;-82
2023/03/18 00:50:47;;;;;;;9.45;6.78;;;11.60;99.90;;;;;;5108835;28;20091;-81
2023/03/18 00:53:13;;;;;;;8.98;6.82;;;11.50;99.90;;;;;;5108146;28;20039;-81
2023/03/18 00:55:39;;;;;;;8.70;7.38;;;11.50;99.90;;;;;;5108138;28;20054;-81
2023/03/18 00:58:06;;;;;;;11.30;7.88;;;11.40;99.90;;;;;;5106281;28;20054;-81
2023/03/18 01:00:31;;;;;;;13.80;8.82;;;11.40;99.90;;;;;;5100560;28;20051;-82
2023/03/18 01:02:58;;;;;;;12.93;8.68;;;11.30;99.90;;;;;;5102069;28;20133;-82
2023/03/18 01:05:23;;;;;;;13.50;8.80;;;11.30;99.90;;;;;;5108019;28;20043;-82
2023/03/18 01:07:49;;;;;;;11.50;8.38;;;11.30;99.90;;;;;;5107616;28;20072;-82
2023/03/18 01:10:15;;;;;;;9.88;8.40;;;11.20;99.90;;;;;;5107179;28;20047;-82
2023/03/18 01:12:45;;;;;;;11.18;8.90;;;11.10;99.90;;;;;;5107143;28;20077;-82
2023/03/18 01:15:12;;;;;;;10.63;9.05;;;11.00;99.90;;;;;;5089967;28;20035;-82
2023/03/18 01:17:38;;;;;;;10.32;8.88;;;10.90;99.90;;;;;;5126944;28;20051;-82
2023/03/18 01:20:04;;;;;;;12.25;9.63;;;10.80;99.90;;;;;;5080044;28;20072;-82
2023/03/18 01:22:30;;;;;;;13.68;10.07;;;10.80;99.90;;;;;;5108460;27;20142;-82
2023/03/18 01:24:56;;;;;;;13.85;9.82;;;10.70;99.90;;;;;;5094619;27;20157;-82
2023/03/18 01:27:22;;;;;;;16.55;10.73;;;10.60;99.90;;;;;;5112195;27;20158;-82
2023/03/18 01:29:47;;;;;;;13.15;10.20;;;10.50;99.90;;;;;;5085794;28;20453;-81
2023/03/18 01:32:13;;;;;;;13.57;10.32;;;10.50;99.90;;;;;;5109876;27;20199;-81
2023/03/18 01:34:40;;;;;;;15.07;10.65;;;10.40;99.90;;;;;;5105554;28;20043;-81
2023/03/18 01:37:06;;;;;;;13.50;10.77;;;10.30;99.90;;;;;;5122042;27;20047;-81
2023/03/18 01:39:33;;;;;;;12.35;10.27;;;10.20;99.90;;;;;;5110574;27;20416;-81
2023/03/18 01:41:59;;;;;;;17.55;11.25;;;10.20;99.90;;;;;;5111640;27;20393;-81
2023/03/18 01:44:26;;;;;;;16.95;12.07;;;10.40;99.90;;;;;;5094393;27;20070;-81
2023/03/18 01:46:53;;;;;;;15.05;11.15;;;10.10;99.90;;;;;;5094478;27;20064;-81
2023/03/18 01:49:26;;;;;;;18.52;12.32;;;10.00;99.90;;;;;;5112265;27;20042;-81
2023/03/18 01:52:18;;;;;;;14.93;11.60;;;9.90;99.90;;;;;;5094465;27;20091;-81
2023/03/18 01:54:57;;;;;;;14.85;11.30;;;9.90;99.90;;;;;;5111591;27;20412;-81
2023/03/18 01:57:23;;;;;;;16.10;11.45;;;9.80;99.90;;;;;;5129157;27;20035;-81
2023/03/18 01:59:52;;;;;;;15.13;11.65;;;9.70;99.90;;;;;;5109657;27;20058;-82
2023/03/18 02:02:18;;;;;;;18.85;12.25;;;9.60;99.90;;;;;;5110439;27;20401;-82
2023/03/18 02:04:56;;;;;;;14.65;11.32;;;9.60;99.90;;;;;;5109709;27;20522;-81
2023/03/18 02:07:33;;;;;;;14.55;11.55;;;9.40;99.90;;;;;;5101275;28;20349;-81
2023/03/18 02:10:04;;;;;;;15.23;11.82;;;9.30;99.90;;;;;;5092059;27;20126;-82
2023/03/18 02:12:33;;;;;;;16.02;12.43;;;9.30;99.90;;;;;;5084013;28;20051;-82
2023/03/18 02:15:04;;;;;;;14.93;11.43;;;9.30;99.90;;;;;;5092273;27;20438;-82
2023/03/18 02:17:34;;;;;;;16.50;13.13;;;9.30;99.90;;;;;;5080761;27;20088;-81
2023/03/18 02:20:37;;;;;;;17.63;11.98;;;9.20;99.90;;;;;;5129391;27;20051;-81
2023/03/18 02:24:03;;;;;;;18.33;13.13;;;9.20;99.90;;;;;;5129845;27;20043;-81
2023/03/18 02:26:54;;;;;;;18.20;13.00;;;9.10;99.90;;;;;;5129420;27;20263;-81
2023/03/18 02:29:27;;;;;;;18.40;12.82;;;9.20;99.90;;;;;;5110277;27;20043;-81
2023/03/18 02:34:46;;;;;;;18.85;14.07;;;9.30;99.90;;;;;;5100537;27;20055;-81
2023/03/18 02:37:11;;;;;;;17.38;13.90;;;9.30;99.90;;;;;;5109025;27;20055;-81
2023/03/18 02:39:40;;;;;;;19.98;14.27;;;9.30;99.90;;;;;;5110489;27;20126;-81
2023/03/18 02:42:10;;;;;;;19.10;13.85;;;9.60;99.90;;;;;;5129435;27;20728;-81
2023/03/18 02:44:41;;;;;;;20.77;15.25;;;9.30;99.90;;;;;;5127850;27;20051;-81
2023/03/18 02:47:16;;;;;;;20.27;15.73;;;9.40;99.90;;;;;;5129652;27;20362;-81
2023/03/18 02:49:41;;;;;;;20.90;15.88;;;9.50;99.90;;;;;;5109528;27;20493;-81
2023/03/18 02:52:07;;;;;;;21.70;16.50;;;9.40;99.90;;;;;;5117631;27;20047;-81
2023/03/18 02:54:33;;;;;;;20.90;15.98;;;9.50;99.90;;;;;;5127127;27;20034;-81
2023/03/18 02:56:59;;;;;;;20.77;16.70;;;9.50;99.90;;;;;;5128651;27;20061;-81
2023/03/18 02:59:25;;;;;;;21.92;15.80;;;9.50;99.90;;;;;;5127524;27;20039;-81
2023/03/18 03:01:53;;;;;;;25.05;16.25;;;9.50;99.90;;;;;;5128757;27;20050;-81
2023/03/18 03:04:22;;;;;;;23.17;16.50;;;9.60;99.90;;;;;;5108259;27;20051;-81
2023/03/18 03:06:50;;;;;;;27.63;16.95;;;9.50;99.90;;;;;;5114534;27;20069;-81
2023/03/18 03:09:16;;;;;;;23.35;15.82;;;9.50;99.90;;;;;;5109953;27;20047;-81
2023/03/18 03:11:44;;;;;;;22.73;16.58;;;9.50;99.90;;;;;;5127637;27;20069;-81
2023/03/18 03:14:11;;;;;;;21.85;16.48;;;9.50;99.90;;;;;;5127620;27;20046;-81
2023/03/18 03:16:37;;;;;;;24.92;16.33;;;9.40;99.90;;;;;;5128992;27;20051;-81
2023/03/18 03:19:04;;;;;;;20.20;15.38;;;9.60;99.90;;;;;;5128552;27;20482;-81
2023/03/18 03:21:32;;;;;;;22.77;16.50;;;9.30;99.90;;;;;;5091728;27;20088;-81
2023/03/18 03:23:58;;;;;;;23.15;16.27;;;9.30;99.90;;;;;;5128258;27;21090;-81
2023/03/18 03:26:24;;;;;;;20.02;15.93;;;9.30;99.90;;;;;;5127815;27;20043;-81
2023/03/18 03:28:50;;;;;;;27.35;16.42;;;9.20;99.90;;;;;;5109373;27;20043;-81
2023/03/18 03:31:16;;;;;;;19.58;15.20;;;9.20;99.90;;;;;;5128464;27;20043;-81
2023/03/18 03:33:43;;;;;;;22.60;16.10;;;9.10;99.90;;;;;;5109774;27;20084;-81
2023/03/18 03:36:11;;;;;;;24.58;16.25;;;9.30;99.90;;;;;;5108163;27;20945;-81
2023/03/18 03:38:37;;;;;;;19.90;16.05;;;9.10;99.90;;;;;;5092416;27;20048;-81
2023/03/18 03:41:04;;;;;;;23.67;16.60;;;9.00;99.90;;;;;;5109855;27;20457;-81
2023/03/18 03:43:30;;;;;;;20.35;16.23;;;9.00;99.90;;;;;;5091567;27;20058;-81
2023/03/18 03:45:56;;;;;;;24.10;16.08;;;9.10;99.90;;;;;;5110245;27;20400;-81
2023/03/18 03:48:22;;;;;;;19.98;15.52;;;9.00;99.90;;;;;;5090271;27;20039;-81
2023/03/18 03:50:49;;;;;;;23.98;15.95;;;9.00;99.90;;;;;;5092614;27;20047;-82
2023/03/18 03:53:15;;;;;;;19.75;15.30;;;9.00;99.90;;;;;;5109711;27;20084;-82
2023/03/18 03:55:41;;;;;;;20.90;15.80;;;9.00;99.90;;;;;;5127148;27;20047;-82
2023/03/18 03:58:08;;;;;;;20.35;14.35;;;9.00;99.90;;;;;;5109331;27;20047;-82
2023/03/18 04:00:34;;;;;;;21.75;15.45;;;8.90;99.90;;;;;;5106428;27;20418;-81
2023/03/18 04:03:00;;;;;;;19.20;15.75;;;8.90;99.90;;;;;;5108819;27;20069;-81
2023/03/18 04:05:25;;;;;;;20.85;16.33;;;8.90;99.90;;;;;;5092104;27;20039;-81
2023/03/18 04:07:52;;;;;;;20.05;16.00;;;8.80;99.90;;;;;;5107800;28;20144;-81
2023/03/18 04:10:20;;;;;;;21.23;16.83;;;8.80;99.90;;;;;;5106277;28;20049;-81
2023/03/18 04:12:46;;;;;;;21.80;17.58;;;8.90;99.90;;;;;;5105578;27;20070;-81
2023/03/18 04:15:15;;;;;;;23.58;16.60;;;9.20;99.90;;;;;;5108226;28;20435;-81
2023/03/18 04:17:41;;;;;;;20.02;15.68;;;8.80;99.90;;;;;;5080099;27;20516;-81
2023/03/18 04:20:07;;;;;;;22.05;16.88;;;8.80;99.90;;;;;;5127576;27;20043;-81
2023/03/18 04:22:33;;;;;;;24.80;16.88;;;8.80;99.90;;;;;;5108165;28;20129;-81
2023/03/18 04:24:59;;;;;;;19.63;15.93;;;8.80;99.90;;;;;;5108564;28;20050;-81
2023/03/18 04:27:26;;;;;;;19.77;15.40;;;8.80;99.90;;;;;;5092103;28;20031;-81
2023/03/18 04:29:53;;;;;;;20.55;15.90;;;8.70;99.90;;;;;;5108680;28;20481;-81
2023/03/18 04:32:18;;;;;;;21.25;16.77;;;8.70;99.90;;;;;;5128035;28;20047;-81
2023/03/18 04:34:44;;;;;;;23.38;16.85;;;8.80;99.90;;;;;;5108117;28;20051;-81
2023/03/18 04:37:12;;;;;;;21.08;15.68;;;9.30;99.90;;;;;;5107549;28;20416;-81
2023/03/18 04:39:38;;;;;;;22.52;16.67;;;8.70;99.90;;;;;;5109482;28;20092;-81
2023/03/18 04:42:04;;;;;;;21.83;17.00;;;8.80;99.90;;;;;;5107993;28;20051;-81
2023/03/18 04:44:31;;;;;;;22.48;16.85;;;8.80;99.90;;;;;;5109142;28;20057;-81
2023/03/18 04:46:56;;;;;;;22.95;17.55;;;8.70;99.90;;;;;;5092500;28;20443;-81
2023/03/18 04:49:23;;;;;;;23.25;18.20;;;8.70;99.90;;;;;;5090475;28;20056;-81
2023/03/18 04:51:49;;;;;;;21.63;17.02;;;8.70;99.90;;;;;;5091635;28;20051;-81
2023/03/18 04:54:14;;;;;;;26.20;19.52;;;8.70;99.90;;;;;;5109996;28;20047;-81
2023/03/18 04:56:40;;;;;;;25.13;19.02;;;8.70;99.90;;;;;;5093598;27;20039;-81
2023/03/18 04:59:09;;;;;;;23.67;18.90;;;8.70;99.90;;;;;;5113174;27;20083;-81
2023/03/18 05:01:34;;;;;;;21.08;17.50;;;8.80;99.90;;;;;;5111172;27;20047;-81
2023/03/18 05:04:00;;;;;;;23.23;18.17;;;8.60;99.90;;;;;;5095890;27;20400;-81
2023/03/18 05:06:28;;;;;;;24.02;18.20;;;8.70;99.90;;;;;;5132077;27;20088;-81
2023/03/18 05:08:55;;;;;;;23.75;19.10;;;8.60;99.90;;;;;;5131100;27;20047;-81
2023/03/18 05:11:22;;;;;;;24.00;19.38;;;8.70;99.90;;;;;;5129952;27;20051;-81
2023/03/18 05:13:47;;;;;;;26.23;19.33;;;8.70;99.90;;;;;;5111154;27;20726;-81
2023/03/18 05:16:14;;;;;;;26.08;18.60;;;8.70;99.90;;;;;;5130904;27;20062;-81
2023/03/18 05:18:40;;;;;;;24.65;18.73;;;8.60;99.90;;;;;;5110805;27;20063;-81
2023/03/18 05:21:07;;;;;;;25.38;18.35;;;9.30;99.90;;;;;;5129906;27;20042;-81
2023/03/18 05:23:33;;;;;;;22.00;18.55;;;8.60;99.90;;;;;;5125244;27;20028;-81
2023/03/18 05:25:59;;;;;;;25.48;18.38;;;8.60;99.90;;;;;;5101932;27;20731;-80
2023/03/18 05:28:25;;;;;;;24.27;19.33;;;8.60;99.90;;;;;;5129705;27;20051;-81
2023/03/18 05:30:51;;;;;;;22.77;17.92;;;8.60;99.90;;;;;;5111020;27;20059;-81
2023/03/18 05:33:18;;;;;;;24.38;18.63;;;8.60;99.90;;;;;;5112745;27;20046;-81
2023/03/18 05:35:46;;;;;;;21.67;17.75;;;8.60;99.90;;;;;;5129809;27;20059;-80
2023/03/18 05:38:11;;;;;;;24.13;18.50;;;8.60;99.90;;;;;;5095525;27;20055;-81
2023/03/18 05:40:38;;;;;;;26.50;19.83;;;8.60;99.90;;;;;;5129718;27;20035;-81
2023/03/18 05:43:04;;;;;;;25.15;19.50;;;8.60;99.90;;;;;;5116524;27;20046;-81
2023/03/18 05:45:30;;;;;;;26.75;19.27;;;8.60;99.90;;;;;;5108682;27;20035;-81
2023/03/18 05:47:56;;;;;;;27.67;19.10;;;8.70;99.90;;;;;;5107037;28;20067;-81
2023/03/18 05:50:35;;;;;;;24.50;18.48;;;8.70;99.90;;;;;;5103124;28;20074;-80
2023/03/18 05:53:01;;;;;;;24.17;17.73;;;8.70;99.90;;;;;;5091322;28;20044;-82
2023/03/18 05:55:34;;;;;;;24.08;17.63;;;8.70;99.90;;;;;;5085402;27;20126;-80
2023/03/18 05:58:03;;;;;;;23.15;17.75;;;8.70;99.90;;;;;;5111315;27;20039;-80
2023/03/18 06:00:29;;;;;;;24.38;17.30;;;8.70;99.90;;;;;;5109237;27;20046;-80
2023/03/18 06:02:57;;;;;;;23.98;17.15;;;8.70;99.90;;;;;;5111543;27;20409;-80
2023/03/18 06:05:27;;;;;;;23.15;17.60;;;8.70;99.90;;;;;;5093877;27;20039;-80
2023/03/18 06:07:53;;;;;;;23.23;17.40;;;8.80;99.90;;;;;;5110722;27;20043;-80
2023/03/18 06:10:24;;;;;;;22.90;18.17;;;8.80;99.90;;;;;;5110974;27;20043;-80
2023/03/18 06:12:54;;;;;;;21.95;17.00;;;8.80;99.90;;;;;;5092862;27;20126;-81
2023/03/18 06:15:32;;;;;;;36.47;27.60;;;8.80;99.90;;;;;;5094832;27;20039;-81
2023/03/18 06:18:17;;;;;;;40.78;27.73;;;8.80;99.90;;;;;;5110423;27;20049;-80
2023/03/18 06:20:43;;;;;;;53.45;38.25;;;8.80;99.90;;;;;;5127722;27;20095;-80
2023/03/18 06:23:13;;;;;;;39.45;29.15;;;8.80;99.90;;;;;;5127894;27;20136;-80
2023/03/18 06:25:42;;;;;;;29.67;21.55;;;8.80;99.90;;;;;;5130488;27;20051;-80
2023/03/18 06:28:07;;;;;;;31.13;22.50;;;8.80;99.90;;;;;;5091321;27;20054;-82
2023/03/18 06:30:33;;;;;;;27.05;20.73;;;8.80;99.90;;;;;;5128774;27;20513;-80
2023/03/18 06:33:02;;;;;;;26.58;20.52;;;8.80;99.90;;;;;;5128499;27;20043;-80
2023/03/18 06:35:27;;;;;;;23.10;19.90;;;8.90;99.90;;;;;;5129632;27;20051;-81
2023/03/18 06:37:53;;;;;;;24.23;18.77;;;8.80;99.90;;;;;;5108246;27;20119;-82
2023/03/18 06:40:19;;;;;;;26.88;20.15;;;8.80;99.90;;;;;;5125836;27;20073;-81
2023/03/18 06:42:45;;;;;;;23.65;18.92;;;8.90;99.90;;;;;;5128450;27;20039;-81
2023/03/18 06:45:11;;;;;;;24.70;18.98;;;8.90;99.90;;;;;;5107724;27;20062;-81
2023/03/18 06:47:37;;;;;;;21.23;17.13;;;9.40;99.90;;;;;;5111139;27;20088;-81
2023/03/18 06:50:04;;;;;;;22.67;16.88;;;9.00;99.90;;;;;;5094394;27;20051;-81
2023/03/18 06:52:30;;;;;;;20.27;15.77;;;9.00;99.90;;;;;;5129138;27;20066;-80
2023/03/18 06:54:56;;;;;;;22.63;16.50;;;9.10;99.90;;;;;;5110666;27;20516;-81
2023/03/18 06:57:21;;;;;;;21.33;15.60;;;9.10;99.90;;;;;;5110157;27;20055;-81
2023/03/18 06:59:47;;;;;;;17.33;15.45;;;9.20;99.90;;;;;;5108765;27;20085;-81
2023/03/18 07:02:16;;;;;;;19.65;15.85;;;9.20;99.90;;;;;;5093959;27;20074;-81
2023/03/18 07:04:42;;;;;;;21.38;14.63;;;9.30;99.90;;;;;;5109993;27;20053;-81
2023/03/18 07:07:08;;;;;;;19.73;14.98;;;9.40;99.90;;;;;;5110816;27;20051;-81
2023/03/18 07:09:33;;;;;;;21.05;15.23;;;9.40;99.90;;;;;;5093798;27;20050;-81
2023/03/18 07:12:00;;;;;;;17.88;15.05;;;9.50;99.90;;;;;;5097407;28;20055;-81
2023/03/18 07:14:27;;;;;;;17.55;14.73;;;9.90;99.90;;;;;;5097185;27;20152;-81
2023/03/18 07:16:54;;;;;;;16.45;13.93;;;9.70;99.90;;;;;;5109295;27;20496;-80
2023/03/18 07:19:19;;;;;;;16.08;13.65;;;9.80;99.90;;;;;;5124816;27;20847;-80
2023/03/18 07:21:46;;;;;;;20.10;14.02;;;9.90;99.90;;;;;;5106537;27;20054;-81
2023/03/18 07:24:13;;;;;;;15.63;13.88;;;10.40;99.90;;;;;;5110072;27;20550;-82
2023/03/18 07:26:38;;;;;;;18.70;14.55;;;10.00;99.90;;;;;;5092198;27;20147;-82
2023/03/18 07:29:04;;;;;;;16.63;13.30;;;10.00;99.90;;;;;;5129599;27;20698;-83
2023/03/18 07:31:30;;;;;;;17.90;14.23;;;10.10;99.90;;;;;;5110335;27;20047;-83
2023/03/18 07:33:56;;;;;;;17.65;13.25;;;10.10;99.90;;;;;;5110011;27;20043;-83
2023/03/18 07:36:22;;;;;;;17.52;13.13;;;10.20;99.90;;;;;;5109803;27;20047;-83
2023/03/18 07:38:51;;;;;;;18.30;13.27;;;10.20;99.90;;;;;;5127699;27;20039;-82
2023/03/18 07:41:17;;;;;;;18.83;14.05;;;10.70;99.90;;;;;;5127344;27;20051;-82
2023/03/18 07:43:42;;;;;;;18.55;13.70;;;10.20;99.90;;;;;;5112731;27;20836;-83
2023/03/18 07:46:08;;;;;;;17.70;14.27;;;10.20;99.90;;;;;;5110455;27;20409;-83
2023/03/18 07:48:34;;;;;;;19.88;14.52;;;10.20;99.90;;;;;;5109458;27;20047;-82
2023/03/18 07:51:00;;;;;;;16.73;12.95;;;10.20;99.90;;;;;;5109605;27;20127;-81
2023/03/18 07:53:27;;;;;;;20.08;13.45;;;10.20;99.90;;;;;;5108792;27;20427;-81
2023/03/18 07:55:53;;;;;;;17.55;13.95;;;10.20;99.90;;;;;;5110247;27;20104;-81
2023/03/18 07:58:18;;;;;;;21.27;15.82;;;10.20;99.90;;;;;;5109877;27;20036;-78
2023/03/18 08:00:44;;;;;;;20.88;15.77;;;10.20;99.90;;;;;;5126266;27;20050;-78
2023/03/18 08:03:11;;;;;;;22.15;16.67;;;10.20;99.90;;;;;;5109599;27;20072;-79
2023/03/18 08:05:37;;;;;;;23.48;16.42;;;10.10;99.90;;;;;;5128706;27;20054;-79
2023/03/18 08:08:04;;;;;;;22.08;16.58;;;10.10;99.90;;;;;;5109898;27;20066;-79
2023/03/18 08:10:30;;;;;;;27.48;18.48;;;10.20;99.90;;;;;;5109369;27;20047;-79
2023/03/18 08:12:56;;;;;;;21.92;18.63;;;10.30;99.90;;;;;;5109886;28;20390;-79
2023/03/18 08:15:22;;;;;;;25.10;19.10;;;10.40;99.90;;;;;;5110126;28;20043;-79
2023/03/18 08:17:49;;;;;;;25.58;19.13;;;10.50;99.90;;;;;;5127775;27;20047;-78
2023/03/18 08:20:15;;;;;;;23.35;19.13;;;10.60;99.90;;;;;;5110025;27;20418;-79
2023/03/18 08:22:41;;;;;;;24.70;19.77;;;10.70;99.90;;;;;;5092934;27;20043;-79
2023/03/18 08:25:07;;;;;;;23.42;19.02;;;10.70;99.90;;;;;;5092294;28;20035;-78
2023/03/18 08:27:33;;;;;;;26.27;18.95;;;10.80;99.90;;;;;;5092508;28;20039;-78
2023/03/18 08:29:59;;;;;;;26.88;20.35;;;10.90;99.90;;;;;;5129187;27;20043;-79
2023/03/18 08:32:24;;;;;;;25.35;19.10;;;11.00;99.90;;;;;;5113230;27;20126;-79
2023/03/18 08:34:51;;;;;;;29.42;19.65;;;11.50;99.90;;;;;;5112090;27;20135;-80
2023/03/18 08:37:17;;;;;;;27.25;19.83;;;11.10;99.90;;;;;;5096049;27;20054;-80
2023/03/18 08:39:43;;;;;;;23.88;18.95;;;11.20;99.90;;;;;;5113738;27;20062;-80
2023/03/18 08:42:09;;;;;;;23.67;17.52;;;11.30;99.90;;;;;;5113524;27;20043;-81
2023/03/18 08:44:35;;;;;;;21.45;18.33;;;11.20;99.90;;;;;;5113465;27;20043;-81
2023/03/18 08:47:01;;;;;;;22.05;17.85;;;11.30;99.90;;;;;;5113349;27;20058;-78
2023/03/18 08:49:26;;;;;;;27.08;21.02;;;11.30;99.90;;;;;;5113391;27;20097;-78
2023/03/18 08:51:52;;;;;;;25.83;19.17;;;11.40;99.90;;;;;;5112954;27;20495;-78
2023/03/18 08:54:18;;;;;;;24.23;18.92;;;11.50;99.90;;;;;;5112506;27;20039;-79
2023/03/18 08:56:51;;;;;;;34.28;22.70;;;12.00;99.90;;;;;;5131949;27;20698;-79
2023/03/18 08:59:17;;;;;;;26.02;19.30;;;11.70;99.90;;;;;;5113262;27;20050;-79
2023/03/18 09:01:42;;;;;;;27.65;21.25;;;11.90;99.90;;;;;;5131506;27;20396;-79
2023/03/18 09:04:08;;;;;;;25.92;20.00;;;12.00;99.90;;;;;;5113188;27;20397;-79
2023/03/18 09:06:33;;;;;;;23.73;18.17;;;12.20;99.90;;;;;;5095581;27;20070;-79
2023/03/18 09:08:59;;;;;;;24.88;17.70;;;12.30;99.90;;;;;;5096225;27;20047;-79
2023/03/18 09:11:25;;;;;;;24.88;18.23;;;12.40;99.90;;;;;;5113149;27;20054;-80
2023/03/18 09:13:51;;;;;;;26.38;19.83;;;12.50;99.90;;;;;;5096012;27;20035;-80
2023/03/18 09:16:17;;;;;;;23.85;18.65;;;13.00;99.90;;;;;;5107933;27;20035;-80
2023/03/18 09:18:43;;;;;;;23.33;17.88;;;13.00;99.90;;;;;;5089628;27;20076;-80
2023/03/18 09:21:18;;;;;;;22.27;16.63;;;12.80;99.90;;;;;;5103431;27;20061;-81
2023/03/18 09:23:44;;;;;;;24.10;17.75;;;12.90;99.90;;;;;;5101902;27;20035;-81
2023/03/18 09:26:10;;;;;;;21.63;17.70;;;13.00;99.90;;;;;;5082314;27;20055;-80
2023/03/18 09:28:36;;;;;;;20.10;16.35;;;13.10;99.90;;;;;;5112062;27;20393;-80
2023/03/18 09:31:02;;;;;;;20.05;16.77;;;13.20;99.90;;;;;;5130879;27;20045;-80
2023/03/18 09:33:28;;;;;;;26.05;17.52;;;13.60;99.90;;;;;;5092203;28;20048;-80
2023/03/18 09:35:54;;;;;;;20.48;16.88;;;13.50;99.90;;;;;;5123889;27;20058;-80
2023/03/18 09:38:20;;;;;;;22.90;17.42;;;13.70;99.90;;;;;;5130601;27;20043;-80
2023/03/18 09:41:28;;;;;;;23.13;17.73;;;13.90;99.90;;;;;;5130410;27;20031;-79
2023/03/18 09:44:02;;;;;;;22.50;17.92;;;14.10;99.90;;;;;;5129412;27;20047;-81
2023/03/18 09:46:51;;;;;;;22.92;16.50;;;14.10;99.90;;;;;;5110547;27;20129;-81
2023/03/18 09:49:45;;;;;;;19.55;17.05;;;14.10;99.90;;;;;;5074718;28;20043;-81
2023/03/18 09:52:36;;;;;;;23.00;17.75;;;13.90;99.90;;;;;;5109024;28;20040;-80
2023/03/18 09:55:34;;;;;;;24.70;18.95;;;13.70;99.90;;;;;;5091448;28;20127;-81
2023/03/18 09:58:02;;;;;;;26.63;19.50;;;13.60;99.90;;;;;;5110382;28;20066;-81
2023/03/18 10:00:30;;;;;;;23.85;19.38;;;13.50;99.90;;;;;;5075005;28;20046;-81
2023/03/18 10:03:04;;;;;;;23.85;18.98;;;13.50;99.90;;;;;;5109604;28;20123;-81
2023/03/18 10:05:37;;;;;;;24.70;19.40;;;13.30;99.90;;;;;;5091985;28;20109;-80
2023/03/18 10:08:07;;;;;;;;;;;13.60;99.90;;;;;;5110112;28;20181;-80
2023/03/18 10:10:39;;;;;;;21.85;18.58;;;13.60;99.90;;;;;;5109846;28;19924;-80
2023/03/18 10:13:16;;;;;;;23.48;17.70;;;14.00;99.90;;;;;;5110824;28;20054;-79
2023/03/18 10:15:46;;;;;;;24.60;18.00;;;13.80;99.90;;;;;;5090741;28;20162;-79
2023/03/18 10:18:22;;;;;;;23.10;18.80;;;13.50;99.90;;;;;;5092042;28;20448;-80
2023/03/18 10:20:57;;;;;;;24.38;19.30;;;14.00;99.90;;;;;;5092298;28;20087;-80
2023/03/18 10:23:52;;;;;;;23.08;18.27;;;13.90;99.90;;;;;;5109572;28;20039;-79
2023/03/18 10:26:44;;;;;;;23.15;18.33;;;13.70;99.90;;;;;;5107510;27;20047;-80
2023/03/18 10:29:36;;;;;;;20.70;17.25;;;13.70;99.90;;;;;;5094560;27;20120;-79
2023/03/18 10:32:27;;;;;;;18.95;16.65;;;13.80;99.90;;;;;;5094894;27;20055;-80
2023/03/18 10:35:00;;;;;;;21.30;18.40;;;13.90;99.90;;;;;;5129542;27;20094;-80
2023/03/18 10:37:45;;;;;;;21.30;17.55;;;14.00;99.90;;;;;;5111372;27;20096;-80
2023/03/18 10:40:13;;;;;;;23.27;18.95;;;14.20;99.90;;;;;;5111724;27;20473;-80
2023/03/18 10:42:41;;;;;;;20.48;17.25;;;14.40;99.90;;;;;;5130289;27;20047;-80
2023/03/18 10:45:19;;;;;;;22.40;17.25;;;14.40;99.90;;;;;;5112028;27;20107;-80
2023/03/18 10:48:04;;;;;;;24.02;19.00;;;14.50;99.90;;;;;;5128634;27;20053;-80
2023/03/18 10:50:45;;;;;;;20.08;17.63;;;14.70;99.90;;;;;;5111806;27;20433;-80
2023/03/18 10:53:19;;;;;;;24.25;17.77;;;14.80;99.90;;;;;;5098651;28;20047;-80
2023/03/18 10:56:08;;;;;;;18.90;16.98;;;14.90;99.90;;;;;;5089633;28;20043;-79
2023/03/18 10:58:36;;;;;;;21.75;17.92;;;14.60;99.90;;;;;;5090605;28;20043;-79
2023/03/18 11:01:03;;;;;;;20.02;16.90;;;14.50;99.90;;;;;;5109083;28;20173;-80
2023/03/18 11:03:34;;;;;;;22.00;17.35;;;14.50;99.90;;;;;;5089675;28;20061;-79
2023/03/18 11:06:03;;;;;;;16.20;14.50;;;14.40;99.90;;;;;;5090623;28;20493;-79
2023/03/18 11:08:38;;;;;;;14.57;12.82;;;14.40;99.90;;;;;;5090242;28;20148;-79
2023/03/18 11:11:14;;;;;;;13.65;12.35;;;14.40;99.90;;;;;;5091463;27;20066;-79
2023/03/18 11:13:48;;;;;;;13.93;12.50;;;14.30;99.90;;;;;;5090312;28;20048;-78
2023/03/18 11:16:41;;;;;;;13.45;11.85;;;14.20;99.90;;;;;;5116011;27;20050;-79
2023/03/18 11:19:38;;;;;;;15.93;12.23;;;14.10;99.90;;;;;;5110796;27;20119;-80
2023/03/18 11:22:43;;;;;;;12.32;11.05;;;14.00;99.90;;;;;;5090788;27;20055;-79
2023/03/18 11:25:23;;;;;;;12.20;10.85;;;14.00;99.90;;;;;;5068711;28;20086;-80
2023/03/18 11:28:01;;;;;;;10.98;9.77;;;14.00;99.90;;;;;;5096496;27;20050;-80
2023/03/18 11:30:29;;;;;;;12.45;10.82;;;13.90;99.90;;;;;;5103917;27;20042;-81
2023/03/18 11:33:04;;;;;;;10.35;9.38;;;13.90;99.90;;;;;;5109590;27;20093;-80
2023/03/18 11:35:43;;;;;;;10.43;9.43;;;13.90;99.90;;;;;;5106887;27;20094;-80
2023/03/18 11:38:19;;;;;;;10.20;8.43;;;13.90;99.90;;;;;;5109431;27;20043;-80
2023/03/18 11:40:46;;;;;;;9.63;8.57;;;13.90;99.90;;;;;;5111220;27;20053;-81
2023/03/18 11:43:19;;;;;;;8.95;7.85;;;14.00;99.90;;;;;;5126454;27;20051;-81
2023/03/18 11:45:58;;;;;;;11.32;7.10;;;14.10;99.90;;;;;;5108917;27;20043;-81
2023/03/18 11:48:32;;;;;;;9.90;8.50;;;14.20;99.90;;;;;;5128470;27;20039;-80
2023/03/18 11:51:22;;;;;;;9.10;7.88;;;14.30;99.90;;;;;;5108153;27;20064;-81
2023/03/18 11:54:06;;;;;;;9.07;7.65;;;14.50;99.90;;;;;;5103293;28;20065;-81
2023/03/18 11:56:48;;;;;;;8.98;7.90;;;14.70;99.90;;;;;;5108721;27;20131;-81
2023/03/18 11:59:38;;;;;;;9.90;9.00;;;14.90;99.90;;;;;;5105745;28;20108;-81
2023/03/18 12:02:21;;;;;;;10.88;9.07;;;15.10;99.90;;;;;;5102784;27;20039;-80
2023/03/18 12:04:56;;;;;;;9.20;8.00;;;15.50;99.90;;;;;;5096135;28;20071;-80
2023/03/18 12:08:10;;;;;;;9.00;7.80;;;15.10;99.90;;;;;;5097419;27;20116;-80
2023/03/18 12:10:47;;;;;;;10.27;7.40;;;15.30;99.90;;;;;;5080537;27;20104;-80
2023/03/18 12:13:39;;;;;;;9.25;7.82;;;15.40;99.90;;;;;;5099325;28;20039;-80
2023/03/18 12:16:10;;;;;;;;;;;15.50;99.90;;;;;;5079865;28;20042;-80
2023/03/18 12:18:47;;;;;;;9.52;7.28;;;15.60;99.90;;;;;;5117184;27;19923;-81
2023/03/18 12:21:38;;;;;;;7.47;6.78;;;15.60;99.90;;;;;;5119514;27;20046;-82
2023/03/18 12:24:19;;;;;;;7.10;6.38;;;15.80;99.90;;;;;;5105351;28;20128;-81
2023/03/18 12:26:45;;;;;;;7.57;6.78;;;15.90;99.90;;;;;;5099981;28;20043;-80
2023/03/18 12:29:14;;;;;;;8.00;7.18;;;15.90;99.90;;;;;;5097954;28;20047;-80
2023/03/18 12:31:56;;;;;;;8.20;7.10;;;16.00;99.90;;;;;;5079911;28;20055;-80
2023/03/18 12:34:35;;;;;;;8.50;7.70;;;16.10;99.90;;;;;;5101691;28;20043;-81
2023/03/18 12:37:23;;;;;;;7.82;7.03;;;16.10;99.90;;;;;;5108205;27;20063;-79
2023/03/18 12:40:14;;;;;;;7.13;6.38;;;16.20;99.90;;;;;;5109834;28;20059;-80
2023/03/18 12:42:43;;;;;;;10.48;7.40;;;16.20;99.90;;;;;;5109317;27;20071;-79
2023/03/18 12:45:14;;;;;;;8.40;7.07;;;16.20;99.90;;;;;;5108768;28;20066;-79
2023/03/18 12:47:49;;;;;;;8.95;7.38;;;16.20;99.90;;;;;;5127378;27;20035;-80
2023/03/18 12:50:24;;;;;;;8.68;7.50;;;16.10;99.90;;;;;;5107965;28;20051;-80
2023/03/18 12:52:59;;;;;;;10.75;7.70;;;16.10;99.90;;;;;;5092680;28;20074;-80
2023/03/18 12:55:28;;;;;;;8.68;7.78;;;16.10;99.90;;;;;;5108432;28;20421;-80